createdAt,value
2019-05-11T00:00:34.492Z,0.73
2019-05-11T00:03:07.059Z,0.90
2019-05-11T00:05:39.087Z,2.67
2019-05-11T00:08:11.335Z,1.00
2019-05-11T00:10:43.576Z,0.70
2019-05-11T00:13:15.763Z,0.80
2019-05-11T00:15:51.279Z,1.00
2019-05-11T00:18:23.390Z,1.20
2019-05-11T00:20:55.657Z,0.90
2019-05-11T00:23:27.819Z,0.87
2019-05-11T00:26:00.094Z,1.07
2019-05-11T00:28:32.389Z,0.83
2019-05-11T00:31:05.409Z,1.23
2019-05-11T00:33:37.574Z,1.10
2019-05-11T00:36:09.601Z,1.40
2019-05-11T00:38:41.832Z,1.10
2019-05-11T00:41:14.026Z,0.80
2019-05-11T00:43:46.060Z,1.03
2019-05-11T00:46:18.526Z,1.00
2019-05-11T00:48:50.650Z,1.73
2019-05-11T00:51:22.962Z,1.10
2019-05-11T00:53:55.823Z,1.20
2019-05-11T00:56:28.143Z,0.83
2019-05-11T00:59:00.425Z,1.20
2019-05-11T01:01:32.858Z,1.20
2019-05-11T01:04:05.177Z,1.27
2019-05-11T01:06:37.766Z,1.00
2019-05-11T01:09:10.586Z,1.20
2019-05-11T01:11:42.959Z,1.90
2019-05-11T01:14:15.258Z,1.87
2019-05-11T01:16:49.466Z,1.87
2019-05-11T01:19:24.508Z,1.60
2019-05-11T01:21:56.765Z,1.47
2019-05-11T01:24:29.099Z,1.33
2019-05-11T01:27:03.975Z,1.27
2019-05-11T01:29:36.236Z,1.87
2019-05-11T01:32:08.718Z,1.27
2019-05-11T01:34:40.866Z,1.10
2019-05-11T01:37:13.064Z,1.00
2019-05-11T01:39:45.354Z,1.60
2019-05-11T01:42:17.402Z,1.27
2019-05-11T01:44:49.616Z,1.00
2019-05-11T01:47:21.750Z,1.00
2019-05-11T01:49:53.959Z,1.20
2019-05-11T01:52:26.247Z,1.23
2019-05-11T01:54:58.294Z,1.20
2019-05-11T01:57:30.606Z,1.37
2019-05-11T02:00:03.323Z,1.10
2019-05-11T02:02:35.588Z,1.27
2019-05-11T02:05:25.160Z,1.00
2019-05-11T02:07:57.336Z,1.27
2019-05-11T02:10:29.724Z,1.90
2019-05-11T02:13:02.284Z,1.30
2019-05-11T02:15:34.799Z,1.20
2019-05-11T02:18:07.175Z,1.13
2019-05-11T02:20:39.276Z,1.20
2019-05-11T02:23:11.433Z,0.90
2019-05-11T02:25:43.652Z,0.77
2019-05-11T02:28:15.909Z,1.03
2019-05-11T02:30:48.231Z,1.27
2019-05-11T02:33:20.783Z,1.23
2019-05-11T02:35:53.129Z,0.80
2019-05-11T02:38:25.324Z,1.43
2019-05-11T02:40:57.474Z,1.07
2019-05-11T02:43:29.633Z,1.07
2019-05-11T02:46:03.775Z,1.03
2019-05-11T02:48:36.383Z,0.80
2019-05-11T02:51:09.805Z,1.40
2019-05-11T02:53:43.920Z,1.23
2019-05-11T02:56:16.163Z,1.40
2019-05-11T02:58:48.394Z,1.37
2019-05-11T03:01:20.821Z,1.27
2019-05-11T03:03:53.343Z,1.10
2019-05-11T03:06:25.596Z,0.93
2019-05-11T03:08:57.649Z,1.50
2019-05-11T03:11:29.813Z,1.07
2019-05-11T03:14:02.366Z,1.23
2019-05-11T03:16:35.002Z,0.97
2019-05-11T03:19:07.155Z,0.87
2019-05-11T03:21:39.324Z,1.60
2019-05-11T03:24:11.492Z,1.20
2019-05-11T03:26:43.701Z,2.20
2019-05-11T03:29:17.883Z,1.63
2019-05-11T03:31:50.194Z,1.10
2019-05-11T03:34:22.287Z,1.50
2019-05-11T03:36:54.558Z,1.17
2019-05-11T03:39:26.955Z,1.40
2019-05-11T03:42:13.210Z,1.67
2019-05-11T03:44:33.534Z,1.40
2019-05-11T03:47:06.082Z,1.50
2019-05-11T03:49:38.381Z,1.57
2019-05-11T03:52:10.452Z,1.27
2019-05-11T03:54:42.647Z,1.50
2019-05-11T03:57:14.786Z,1.40
2019-05-11T03:59:47.086Z,1.70
2019-05-11T04:02:19.268Z,1.40
2019-05-11T04:04:51.749Z,1.47
2019-05-11T04:07:24.220Z,1.50
2019-05-11T04:09:56.521Z,1.53
2019-05-11T04:12:34.818Z,1.70
2019-05-11T04:15:03.438Z,1.80
2019-05-11T04:17:35.629Z,1.70
2019-05-11T04:20:08.067Z,1.27
2019-05-11T04:22:40.350Z,1.20
2019-05-11T04:25:12.647Z,1.47
2019-05-11T04:27:45.059Z,1.20
2019-05-11T04:30:17.557Z,1.13
2019-05-11T04:32:49.842Z,1.13
2019-05-11T04:35:21.983Z,1.10
2019-05-11T04:37:54.131Z,1.90
2019-05-11T04:40:26.439Z,1.20
2019-05-11T04:42:58.673Z,1.67
2019-05-11T04:45:31.173Z,1.23
2019-05-11T04:48:06.916Z,1.00
2019-05-11T04:50:39.054Z,1.03
2019-05-11T04:53:11.346Z,1.50
2019-05-11T04:55:43.633Z,1.77
2019-05-11T04:58:16.269Z,1.90
2019-05-11T05:00:49.172Z,1.85
2019-05-11T05:03:21.735Z,1.27
2019-05-11T05:05:54.248Z,1.12
2019-05-11T05:08:27.995Z,1.52
2019-05-11T05:11:00.787Z,1.40
2019-05-11T05:13:33.322Z,1.07
2019-05-11T05:16:05.622Z,1.20
2019-05-11T05:18:38.060Z,1.50
2019-05-11T05:21:10.228Z,1.77
2019-05-11T05:23:42.534Z,1.30
2019-05-11T05:26:14.816Z,1.30
2019-05-11T05:28:47.314Z,0.90
2019-05-11T05:31:19.546Z,1.02
2019-05-11T05:33:51.687Z,1.10
2019-05-11T05:36:23.957Z,1.00
2019-05-11T05:38:56.019Z,0.98
2019-05-11T05:41:28.303Z,1.20
2019-05-11T05:44:00.540Z,1.20
2019-05-11T05:46:32.807Z,1.10
2019-05-11T05:49:04.874Z,1.05
2019-05-11T05:51:37.001Z,1.30
2019-05-11T05:54:09.136Z,1.07
2019-05-11T05:56:41.278Z,1.15
2019-05-11T05:59:13.530Z,0.88
2019-05-11T06:01:45.888Z,0.90
2019-05-11T06:04:18.097Z,1.12
2019-05-11T06:06:50.319Z,0.80
2019-05-11T06:09:22.495Z,1.00
2019-05-11T06:11:54.807Z,1.00
2019-05-11T06:14:26.982Z,0.85
2019-05-11T06:16:59.118Z,0.78
2019-05-11T06:19:31.346Z,0.78
2019-05-11T06:22:03.601Z,0.82
2019-05-11T06:24:35.833Z,0.90
2019-05-11T06:27:08.119Z,0.80
2019-05-11T06:29:40.154Z,1.15
2019-05-11T06:32:12.206Z,0.85
2019-05-11T06:34:44.463Z,0.85
2019-05-11T06:37:16.629Z,0.88
2019-05-11T06:39:49.225Z,0.88
2019-05-11T06:42:21.514Z,1.20
2019-05-11T06:44:53.860Z,0.90
2019-05-11T06:47:26.104Z,0.82
2019-05-11T06:49:58.516Z,0.80
2019-05-11T06:52:30.947Z,0.82
2019-05-11T06:55:03.490Z,0.50
2019-05-11T06:57:36.215Z,0.70
2019-05-11T07:00:09.525Z,1.30
2019-05-11T07:02:41.868Z,0.72
2019-05-11T07:05:14.286Z,0.53
2019-05-11T07:07:47.992Z,0.60
2019-05-11T07:10:20.417Z,0.78
2019-05-11T07:12:52.869Z,0.70
2019-05-11T07:15:25.088Z,0.90
2019-05-11T07:17:57.419Z,0.80
2019-05-11T07:20:29.871Z,1.42
2019-05-11T07:23:02.447Z,0.80
2019-05-11T07:25:34.671Z,1.12
2019-05-11T07:28:06.894Z,1.02
2019-05-11T07:30:39.266Z,1.37
2019-05-11T07:33:11.551Z,1.65
2019-05-11T07:35:43.774Z,1.10
2019-05-11T07:38:18.380Z,1.20
2019-05-11T07:40:50.810Z,1.37
2019-05-11T07:43:23.844Z,1.40
2019-05-11T07:45:58.424Z,1.50
2019-05-11T07:48:31.466Z,1.20
2019-05-11T07:51:03.647Z,1.20
2019-05-11T07:53:38.130Z,1.52
2019-05-11T07:56:10.201Z,1.50
2019-05-11T07:58:42.670Z,0.90
2019-05-11T08:01:14.896Z,1.22
2019-05-11T08:03:48.330Z,1.47
2019-05-11T08:06:21.388Z,1.35
2019-05-11T08:08:54.089Z,0.93
2019-05-11T08:11:30.703Z,1.45
2019-05-11T08:14:01.283Z,1.60
2019-05-11T08:16:33.913Z,1.37
2019-05-11T08:19:09.835Z,1.50
2019-05-11T08:21:40.858Z,1.10
2019-05-11T08:24:13.132Z,1.30
2019-05-11T08:26:47.856Z,1.12
2019-05-11T08:29:19.653Z,1.30
2019-05-11T08:31:51.923Z,1.12
2019-05-11T08:34:24.684Z,1.12
2019-05-11T08:36:58.358Z,1.37
2019-05-11T08:39:30.856Z,1.70
2019-05-11T08:42:03.512Z,1.70
2019-05-11T08:44:38.012Z,1.80
2019-05-11T08:47:10.147Z,1.92
2019-05-11T08:49:42.451Z,1.75
2019-05-11T08:52:14.659Z,1.98
2019-05-11T08:54:48.642Z,2.00
2019-05-11T08:57:21.155Z,1.90
2019-05-11T08:59:53.394Z,1.77
2019-05-11T09:02:27.648Z,2.02
2019-05-11T09:04:59.623Z,2.08
2019-05-11T09:07:31.963Z,2.00
2019-05-11T09:10:04.286Z,2.65
2019-05-11T09:12:38.203Z,2.10
2019-05-11T09:15:10.824Z,1.52
2019-05-11T09:17:42.971Z,1.90
2019-05-11T09:20:17.845Z,1.70
2019-05-11T09:22:49.535Z,1.82
2019-05-11T09:25:21.818Z,3.05
2019-05-11T09:27:54.038Z,1.45
2019-05-11T09:30:28.645Z,2.00
2019-05-11T09:33:00.173Z,1.80
2019-05-11T09:35:45.723Z,1.70
2019-05-11T09:38:08.051Z,1.90
2019-05-11T09:40:40.330Z,2.10
2019-05-11T09:43:12.383Z,1.95
2019-05-11T09:45:48.452Z,1.80
2019-05-11T09:48:18.413Z,1.80
2019-05-11T09:50:50.724Z,1.57
2019-05-11T09:53:22.940Z,1.70
2019-05-11T09:55:55.187Z,2.08
2019-05-11T09:58:28.083Z,1.80
2019-05-11T10:01:00.383Z,1.70
2019-05-11T10:03:32.691Z,1.60
2019-05-11T10:06:08.337Z,1.72
2019-05-11T10:08:40.796Z,1.65
2019-05-11T10:11:13.111Z,1.80
2019-05-11T10:13:47.614Z,1.98
2019-05-11T10:16:22.138Z,2.50
2019-05-11T10:18:54.670Z,1.52
2019-05-11T10:21:27.929Z,1.52
2019-05-11T10:24:00.390Z,2.10
2019-05-11T10:26:32.495Z,2.20
2019-05-11T10:29:07.711Z,2.30
2019-05-11T10:31:39.151Z,2.30
2019-05-11T10:34:11.722Z,2.00
2019-05-11T10:36:44.397Z,1.50
2019-05-11T10:39:18.706Z,1.70
2019-05-11T10:41:50.696Z,1.90
2019-05-11T10:44:23.168Z,2.27
2019-05-11T10:46:55.764Z,1.90
2019-05-11T10:49:28.846Z,2.00
2019-05-11T10:52:01.369Z,1.75
2019-05-11T10:54:33.706Z,1.57
2019-05-11T10:57:08.325Z,1.92
2019-05-11T10:59:39.944Z,1.90
2019-05-11T11:02:12.324Z,2.52
2019-05-11T11:04:44.572Z,1.80
2019-05-11T11:07:19.313Z,1.70
2019-05-11T11:09:50.734Z,2.22
2019-05-11T11:12:22.951Z,1.50
2019-05-11T11:14:55.132Z,2.00
2019-05-11T11:17:28.722Z,2.10
2019-05-11T11:20:02.768Z,1.80
2019-05-11T11:22:40.113Z,2.33
2019-05-11T11:25:08.910Z,2.33
2019-05-11T11:27:41.263Z,1.70
2019-05-11T11:30:13.816Z,2.37
2019-05-11T11:32:48.102Z,1.72
2019-05-11T11:35:19.906Z,2.33
2019-05-11T11:37:52.119Z,1.98
2019-05-11T11:40:24.424Z,1.70
2019-05-11T11:42:58.125Z,2.20
2019-05-11T11:45:30.552Z,1.92
2019-05-11T11:48:03.401Z,2.27
2019-05-11T11:50:37.765Z,2.05
2019-05-11T11:53:12.282Z,2.30
2019-05-11T11:55:48.154Z,2.00
2019-05-11T11:58:23.805Z,1.77
2019-05-11T12:00:55.093Z,1.75
2019-05-11T12:03:27.810Z,2.45
2019-05-11T12:06:00.249Z,1.75
2019-05-11T12:08:32.566Z,2.12
2019-05-11T12:11:04.963Z,1.70
2019-05-11T12:13:38.427Z,2.30
2019-05-11T12:16:11.007Z,2.37
2019-05-11T12:18:43.265Z,2.70
2019-05-11T12:21:15.624Z,2.60
2019-05-11T12:23:48.635Z,2.40
2019-05-11T12:29:38.405Z,2.00
2019-05-11T12:32:14.925Z,2.00
2019-05-11T12:34:48.677Z,2.27
2019-05-11T12:37:22.096Z,2.30
2019-05-11T12:39:54.776Z,2.20
2019-05-11T12:42:28.394Z,2.10
2019-05-11T12:45:02.300Z,1.85
2019-05-11T12:47:35.201Z,2.40
2019-05-11T12:50:09.232Z,2.20
2019-05-11T12:52:41.999Z,1.98
2019-05-11T12:55:14.725Z,2.40
2019-05-11T12:57:47.773Z,2.47
2019-05-11T13:00:21.870Z,2.25
2019-05-11T13:02:54.626Z,2.10
2019-05-11T13:05:28.534Z,2.72
2019-05-11T13:08:03.583Z,2.40
2019-05-11T13:10:37.648Z,2.67
2019-05-11T13:13:10.277Z,2.25
2019-05-11T13:15:42.652Z,2.83
2019-05-11T13:18:15.299Z,3.47
2019-05-11T13:20:48.381Z,3.00
2019-05-11T13:23:21.110Z,2.80
2019-05-11T13:25:53.795Z,2.80
2019-05-11T13:28:28.231Z,2.55
2019-05-11T13:31:00.555Z,3.02
2019-05-11T13:33:33.299Z,2.33
2019-05-11T13:36:05.736Z,2.08
2019-05-11T13:38:38.792Z,2.00
2019-05-11T13:41:11.832Z,2.22
2019-05-11T13:43:44.371Z,2.30
2019-05-11T13:46:18.029Z,2.87
2019-05-11T13:48:50.916Z,2.40
2019-05-11T13:51:23.376Z,2.45
2019-05-11T13:53:58.385Z,1.82
2019-05-11T13:56:32.308Z,2.10
2019-05-11T13:59:10.933Z,2.00
2019-05-11T14:01:43.528Z,2.50
2019-05-11T14:04:18.176Z,2.30
2019-05-11T14:06:50.795Z,2.75
2019-05-11T14:09:23.503Z,2.50
2019-05-11T14:11:58.226Z,2.27
2019-05-11T14:14:31.391Z,2.77
2019-05-11T14:17:03.971Z,1.92
2019-05-11T14:19:38.443Z,2.40
2019-05-11T14:22:10.688Z,2.40
2019-05-11T14:24:43.583Z,2.50
2019-05-11T14:27:17.816Z,3.47
2019-05-11T14:29:50.404Z,2.80
2019-05-11T14:32:23.447Z,3.22
2019-05-11T14:34:57.834Z,2.60
2019-05-11T14:37:30.553Z,2.90
2019-05-11T14:40:03.474Z,2.83
2019-05-11T14:42:37.639Z,2.27
2019-05-11T14:45:10.982Z,2.50
2019-05-11T14:47:43.688Z,2.50
2019-05-11T14:50:18.703Z,3.20
2019-05-11T14:52:50.822Z,2.60
2019-05-11T14:55:23.618Z,2.50
2019-05-11T14:57:57.680Z,2.42
2019-05-11T15:00:30.535Z,2.50
2019-05-11T15:03:03.138Z,3.02
2019-05-11T15:05:37.571Z,2.58
2019-05-11T15:08:10.483Z,2.50
2019-05-11T15:10:43.052Z,2.58
2019-05-11T15:13:15.704Z,2.50
2019-05-11T15:15:48.755Z,2.17
2019-05-11T15:18:34.964Z,2.10
2019-05-11T15:20:57.898Z,2.20
2019-05-11T15:23:30.061Z,2.60
2019-05-11T15:26:02.743Z,2.40
2019-05-11T15:28:37.799Z,2.20
2019-05-11T15:31:10.079Z,2.22
2019-05-11T15:33:42.587Z,2.72
2019-05-11T15:36:15.029Z,2.50
2019-05-11T15:38:48.158Z,2.50
2019-05-11T15:41:21.532Z,2.20
2019-05-11T15:43:54.243Z,2.30
2019-05-11T15:46:28.236Z,2.80
2019-05-11T15:49:03.402Z,2.55
2019-05-11T15:51:35.377Z,2.72
2019-05-11T15:54:08.030Z,1.80
2019-05-11T15:56:40.659Z,1.80
2019-05-11T15:59:13.129Z,2.33
2019-05-11T16:01:45.522Z,2.70
2019-05-11T16:04:18.308Z,2.62
2019-05-11T16:06:50.822Z,2.98
2019-05-11T16:09:23.560Z,2.80
2019-05-11T16:11:56.210Z,2.40
2019-05-11T16:14:29.250Z,2.58
2019-05-11T16:17:01.730Z,2.72
2019-05-11T16:19:34.677Z,3.15
2019-05-11T16:22:09.863Z,2.60
2019-05-11T16:24:42.176Z,2.70
2019-05-11T16:27:15.251Z,2.95
2019-05-11T16:29:47.997Z,3.37
2019-05-11T16:32:21.120Z,3.08
2019-05-11T16:34:53.785Z,3.08
2019-05-11T16:37:28.717Z,2.90
2019-05-11T16:40:00.449Z,2.77
2019-05-11T16:42:33.055Z,2.55
2019-05-11T16:45:08.340Z,2.95
2019-05-11T16:47:40.124Z,2.80
2019-05-11T16:50:13.018Z,3.05
2019-05-11T16:52:47.908Z,2.98
2019-05-11T16:55:19.858Z,3.30
2019-05-11T16:57:52.720Z,3.40
2019-05-11T17:00:25.422Z,4.05
2019-05-11T17:02:57.871Z,2.87
2019-05-11T17:05:33.705Z,3.10
2019-05-11T17:08:04.738Z,2.77
2019-05-11T17:10:37.485Z,3.25
2019-05-11T17:13:10.002Z,3.30
2019-05-11T17:15:42.620Z,2.87
2019-05-11T17:18:15.183Z,2.72
2019-05-11T17:20:48.042Z,2.50
2019-05-11T17:23:20.557Z,2.37
2019-05-11T17:25:53.075Z,2.40
2019-05-11T17:28:27.950Z,2.77
2019-05-11T17:31:03.011Z,2.92
2019-05-11T17:33:35.300Z,3.08
2019-05-11T17:36:08.555Z,2.85
2019-05-11T17:38:41.137Z,4.75
2019-05-11T17:41:13.639Z,3.05
2019-05-11T17:43:48.006Z,1.92
2019-05-11T17:46:20.439Z,2.33
2019-05-11T17:48:52.909Z,1.95
2019-05-11T17:51:25.767Z,2.20
2019-05-11T17:53:59.716Z,1.67
2019-05-11T17:56:32.375Z,1.90
2019-05-11T17:59:07.858Z,1.70
2019-05-11T18:01:39.652Z,2.60
2019-05-11T18:04:12.553Z,3.98
2019-05-11T18:06:48.482Z,3.80
2019-05-11T18:09:21.847Z,2.62
2019-05-11T18:11:58.096Z,2.22
2019-05-11T18:14:30.094Z,1.98
2019-05-11T18:17:02.782Z,2.00
2019-05-11T18:19:35.275Z,2.02
2019-05-11T18:22:08.312Z,1.75
2019-05-11T18:24:41.159Z,2.40
2019-05-11T18:27:14.555Z,2.55
2019-05-11T18:29:48.589Z,1.90
2019-05-11T18:32:24.339Z,1.80
2019-05-11T18:34:58.833Z,1.80
2019-05-11T18:37:31.108Z,1.77
2019-05-11T18:40:03.613Z,1.65
2019-05-11T18:42:38.539Z,1.50
2019-05-11T18:45:15.412Z,1.27
2019-05-11T18:47:49.357Z,1.52
2019-05-11T18:50:30.457Z,2.12
2019-05-11T18:52:58.125Z,1.98
2019-05-11T18:55:31.185Z,2.00
2019-05-11T18:58:04.054Z,1.90
2019-05-11T19:00:38.155Z,1.80
2019-05-11T19:03:11.444Z,2.42
2019-05-11T19:05:47.855Z,2.00
2019-05-11T19:08:20.019Z,1.80
2019-05-11T19:10:57.799Z,1.57
2019-05-11T19:13:34.257Z,1.65
2019-05-11T19:16:14.206Z,1.60
2019-05-11T19:18:48.051Z,1.37
2019-05-11T19:21:21.327Z,1.50
2019-05-11T19:24:00.805Z,1.60
2019-05-11T19:26:35.952Z,1.47
2019-05-11T19:29:13.421Z,1.87
2019-05-11T19:31:47.993Z,2.00
2019-05-11T19:34:21.081Z,1.80
2019-05-11T19:36:54.236Z,1.87
2019-05-11T19:39:30.729Z,1.77
2019-05-11T19:42:07.914Z,1.87
2019-05-11T19:44:50.322Z,1.90
2019-05-11T19:47:24.806Z,1.60
2019-05-11T19:50:01.330Z,1.75
2019-05-11T19:52:35.144Z,1.85
2019-05-11T19:55:08.994Z,1.32
2019-05-11T19:57:42.515Z,2.50
2019-05-11T20:00:18.363Z,1.92
2019-05-11T20:02:51.433Z,1.90
2019-05-11T20:05:23.881Z,1.82
2019-05-11T20:07:58.312Z,1.80
2019-05-11T20:10:30.656Z,1.80
2019-05-11T20:13:03.228Z,2.15
2019-05-11T20:15:37.936Z,2.10
2019-05-11T20:18:09.923Z,2.90
2019-05-11T20:20:42.253Z,2.27
2019-05-11T20:23:14.862Z,2.05
2019-05-11T20:25:47.873Z,2.20
2019-05-11T20:28:21.317Z,2.70
2019-05-11T20:30:53.748Z,2.00
2019-05-11T20:33:27.989Z,2.17
2019-05-11T20:36:00.657Z,2.73
2019-05-11T20:38:33.523Z,2.17
2019-05-11T20:41:08.302Z,2.25
2019-05-11T20:43:41.023Z,2.27
2019-05-11T20:46:13.532Z,2.52
2019-05-11T20:48:46.001Z,2.20
2019-05-11T20:51:32.804Z,2.83
2019-05-11T20:53:53.037Z,2.60
2019-05-11T20:56:25.561Z,2.60
2019-05-11T20:58:59.510Z,2.60
2019-05-11T21:01:32.440Z,2.25
2019-05-11T21:04:04.876Z,2.85
2019-05-11T21:06:39.140Z,2.87
2019-05-11T21:09:11.537Z,2.80
2019-05-11T21:11:44.059Z,3.17
2019-05-11T21:14:18.195Z,2.63
2019-05-11T21:16:50.838Z,2.30
2019-05-11T21:19:23.274Z,3.10
2019-05-11T21:21:58.765Z,3.10
2019-05-11T21:24:29.917Z,2.65
2019-05-11T21:27:02.429Z,2.80
2019-05-11T21:29:34.929Z,2.83
2019-05-11T21:32:08.089Z,3.20
2019-05-11T21:34:40.803Z,3.27
2019-05-11T21:37:13.322Z,3.13
2019-05-11T21:39:45.779Z,3.47
2019-05-11T21:42:18.283Z,2.57
2019-05-11T21:44:51.029Z,3.80
2019-05-11T21:47:24.034Z,3.10
2019-05-11T21:49:57.778Z,3.90
2019-05-11T21:52:30.521Z,3.40
2019-05-11T21:55:03.224Z,3.03
2019-05-11T21:57:35.821Z,3.27
2019-05-11T22:00:11.544Z,2.60
2019-05-11T22:02:44.091Z,2.80
2019-05-11T22:05:18.324Z,2.90
2019-05-11T22:07:50.679Z,3.10
2019-05-11T22:10:23.676Z,3.17
2019-05-11T22:12:56.030Z,2.87
2019-05-11T22:15:30.762Z,2.70
2019-05-11T22:18:02.765Z,2.50
2019-05-11T22:20:35.214Z,3.23
2019-05-11T22:23:08.422Z,2.90
2019-05-11T22:25:41.175Z,2.83
2019-05-11T22:28:14.337Z,2.37
2019-05-11T22:30:48.376Z,2.80
2019-05-11T22:33:21.018Z,3.07
2019-05-11T22:35:53.816Z,3.90
2019-05-11T22:38:30.068Z,3.17
2019-05-11T22:41:00.686Z,2.80
2019-05-11T22:43:33.085Z,2.83
2019-05-11T22:46:05.509Z,2.67
2019-05-11T22:48:38.242Z,2.73
2019-05-11T22:51:11.064Z,2.90
2019-05-11T22:53:47.410Z,2.90
2019-05-11T22:56:20.152Z,2.87
2019-05-11T22:58:52.459Z,2.83
2019-05-11T23:01:24.889Z,2.67
2019-05-11T23:03:58.611Z,2.97
2019-05-11T23:06:31.478Z,3.00
2019-05-11T23:09:04.569Z,3.03
2019-05-11T23:11:37.949Z,2.73
2019-05-11T23:14:11.332Z,2.73
2019-05-11T23:16:43.905Z,3.47
2019-05-11T23:19:18.259Z,3.20
2019-05-11T23:21:51.104Z,3.03
2019-05-11T23:24:24.147Z,3.03
2019-05-11T23:26:57.185Z,2.70
2019-05-11T23:29:49.011Z,3.07
2019-05-11T23:32:22.324Z,2.83
2019-05-11T23:34:55.096Z,2.93
2019-05-11T23:37:27.954Z,2.67
2019-05-11T23:40:00.814Z,2.87
2019-05-11T23:42:33.718Z,2.93
2019-05-11T23:45:08.426Z,2.93
2019-05-11T23:47:42.761Z,3.03
2019-05-11T23:50:18.960Z,3.00
2019-05-11T23:53:05.592Z,3.07
2019-05-11T23:55:25.445Z,3.30
2019-05-11T23:57:57.870Z,3.30
